sensor_id;sensor_type;location;lat;lon;timestamp;pressure;altitude;pressure_sealevel;temperature;humidity
70374;BME280;57792;49.198;7.890;2022-09-09T00:00:17;98399.66;;;12.48;78.01
70374;BME280;57792;49.198;7.890;2022-09-09T00:02:27;98397.66;;;12.19;79.62
70374;BME280;57792;49.198;7.890;2022-09-09T00:05:04;98399.53;;;12.17;79.53
70374;BME280;57792;49.198;7.890;2022-09-09T00:06:23;98394.09;;;12.18;79.53
70374;BME280;57792;49.198;7.890;2022-09-09T00:07:55;98389.56;;;12.20;79.30
70374;BME280;57792;49.198;7.890;2022-09-09T00:09:04;98385.16;;;12.19;79.49
70374;BME280;57792;49.198;7.890;2022-09-09T00:10:25;98389.31;;;12.25;78.84
70374;BME280;57792;49.198;7.890;2022-09-09T00:11:52;98388.06;;;12.15;79.54
70374;BME280;57792;49.198;7.890;2022-09-09T00:14:54;98382.47;;;12.19;78.94
70374;BME280;57792;49.198;7.890;2022-09-09T00:16:00;98382.22;;;11.91;80.56
70374;BME280;57792;49.198;7.890;2022-09-09T00:17:12;98377.94;;;12.04;79.74
70374;BME280;57792;49.198;7.890;2022-09-09T00:21:13;98381.69;;;12.00;80.38
70374;BME280;57792;49.198;7.890;2022-09-09T00:22:20;98379.81;;;12.02;80.26
70374;BME280;57792;49.198;7.890;2022-09-09T00:23:30;98388.25;;;11.94;80.53
70374;BME280;57792;49.198;7.890;2022-09-09T00:24:39;98387.06;;;12.00;80.32
70374;BME280;57792;49.198;7.890;2022-09-09T00:25:52;98397.00;;;11.63;81.59
70374;BME280;57792;49.198;7.890;2022-09-09T00:27:01;98392.97;;;11.89;80.36
70374;BME280;57792;49.198;7.890;2022-09-09T00:28:14;98389.69;;;11.84;80.88
70374;BME280;57792;49.198;7.890;2022-09-09T00:29:27;98388.25;;;11.94;80.51
70374;BME280;57792;49.198;7.890;2022-09-09T00:30:34;98383.78;;;11.95;80.26
70374;BME280;57792;49.198;7.890;2022-09-09T00:31:35;98389.41;;;12.06;79.65
70374;BME280;57792;49.198;7.890;2022-09-09T00:32:37;98393.47;;;12.13;79.63
70374;BME280;57792;49.198;7.890;2022-09-09T00:33:38;98387.19;;;12.14;79.51
70374;BME280;57792;49.198;7.890;2022-09-09T00:34:57;98387.00;;;11.84;80.82
70374;BME280;57792;49.198;7.890;2022-09-09T00:36:00;98382.53;;;11.85;80.43
70374;BME280;57792;49.198;7.890;2022-09-09T00:37:02;98380.09;;;11.80;80.56
70374;BME280;57792;49.198;7.890;2022-09-09T00:38:25;98391.16;;;11.72;81.44
70374;BME280;57792;49.198;7.890;2022-09-09T00:39:40;98389.38;;;11.90;80.53
70374;BME280;57792;49.198;7.890;2022-09-09T00:47:51;98391.53;;;11.99;79.76
70374;BME280;57792;49.198;7.890;2022-09-09T00:52:08;98403.34;;;11.95;79.92
70374;BME280;57792;49.198;7.890;2022-09-09T00:54:40;98405.94;;;11.97;79.77
70374;BME280;57792;49.198;7.890;2022-09-09T00:56:06;98408.78;;;11.94;79.56
70374;BME280;57792;49.198;7.890;2022-09-09T00:57:29;98403.09;;;11.83;79.67
70374;BME280;57792;49.198;7.890;2022-09-09T00:58:29;98401.78;;;11.91;79.66
70374;BME280;57792;49.198;7.890;2022-09-09T00:59:51;98398.47;;;11.86;79.95
70374;BME280;57792;49.198;7.890;2022-09-09T01:00:57;98412.97;;;11.98;79.67
70374;BME280;57792;49.198;7.890;2022-09-09T01:03:19;98401.16;;;11.86;80.23
70374;BME280;57792;49.198;7.890;2022-09-09T01:03:59;98396.75;;;11.85;79.87
70374;BME280;57792;49.198;7.890;2022-09-09T01:06:35;98389.22;;;11.93;79.69
70374;BME280;57792;49.198;7.890;2022-09-09T01:07:40;98388.34;;;11.75;80.52
70374;BME280;57792;49.198;7.890;2022-09-09T01:10:24;98393.84;;;11.72;80.49
70374;BME280;57792;49.198;7.890;2022-09-09T01:11:47;98397.53;;;11.53;81.48
70374;BME280;57792;49.198;7.890;2022-09-09T01:12:51;98393.97;;;11.69;80.30
70374;BME280;57792;49.198;7.890;2022-09-09T01:13:58;98393.44;;;11.80;80.27
70374;BME280;57792;49.198;7.890;2022-09-09T01:15:16;98395.41;;;11.76;79.82
70374;BME280;57792;49.198;7.890;2022-09-09T01:16:18;98396.34;;;11.75;79.73
70374;BME280;57792;49.198;7.890;2022-09-09T01:17:25;98403.41;;;11.76;79.70
70374;BME280;57792;49.198;7.890;2022-09-09T01:18:30;98403.31;;;11.43;81.57
70374;BME280;57792;49.198;7.890;2022-09-09T01:19:45;98401.53;;;11.61;80.52
70374;BME280;57792;49.198;7.890;2022-09-09T01:22:52;98394.63;;;11.74;80.04
70374;BME280;57792;49.198;7.890;2022-09-09T01:27:10;98391.56;;;11.82;79.21
70374;BME280;57792;49.198;7.890;2022-09-09T01:28:15;98382.06;;;11.76;79.51
70374;BME280;57792;49.198;7.890;2022-09-09T01:29:18;98389.28;;;11.92;78.91
70374;BME280;57792;49.198;7.890;2022-09-09T01:30:19;98382.38;;;11.88;78.93
70374;BME280;57792;49.198;7.890;2022-09-09T01:31:28;98382.59;;;11.83;79.02
70374;BME280;57792;49.198;7.890;2022-09-09T01:32:43;98388.88;;;11.82;79.79
70374;BME280;57792;49.198;7.890;2022-09-09T01:33:45;98387.94;;;11.83;79.29
70374;BME280;57792;49.198;7.890;2022-09-09T01:34:45;98384.19;;;11.87;79.00
70374;BME280;57792;49.198;7.890;2022-09-09T01:35:53;98382.38;;;11.88;79.06
70374;BME280;57792;49.198;7.890;2022-09-09T01:38:01;98380.41;;;11.91;79.23
70374;BME280;57792;49.198;7.890;2022-09-09T01:39:02;98386.59;;;11.92;78.80
70374;BME280;57792;49.198;7.890;2022-09-09T01:40:03;98377.88;;;11.88;78.72
70374;BME280;57792;49.198;7.890;2022-09-09T01:41:03;98388.81;;;11.84;79.37
70374;BME280;57792;49.198;7.890;2022-09-09T01:42:06;98383.31;;;11.87;78.68
70374;BME280;57792;49.198;7.890;2022-09-09T01:43:08;98377.03;;;11.88;78.72
70374;BME280;57792;49.198;7.890;2022-09-09T01:44:09;98375.13;;;11.90;78.72
70374;BME280;57792;49.198;7.890;2022-09-09T01:45:10;98383.69;;;11.96;78.39
70374;BME280;57792;49.198;7.890;2022-09-09T01:46:11;98384.66;;;11.95;78.17
70374;BME280;57792;49.198;7.890;2022-09-09T01:47:12;98381.78;;;11.98;77.97
70374;BME280;57792;49.198;7.890;2022-09-09T01:48:15;98375.56;;;11.98;77.81
70374;BME280;57792;49.198;7.890;2022-09-09T01:49:16;98383.69;;;11.96;78.03
70374;BME280;57792;49.198;7.890;2022-09-09T01:50:17;98381.78;;;11.98;78.16
70374;BME280;57792;49.198;7.890;2022-09-09T01:51:17;98370.50;;;11.93;78.40
70374;BME280;57792;49.198;7.890;2022-09-09T01:52:17;98370.50;;;11.93;77.98
70374;BME280;57792;49.198;7.890;2022-09-09T01:53:19;98373.00;;;11.96;77.97
70374;BME280;57792;49.198;7.890;2022-09-09T01:54:23;98370.34;;;11.96;77.71
70374;BME280;57792;49.198;7.890;2022-09-09T01:55:38;98382.84;;;11.78;78.65
70374;BME280;57792;49.198;7.890;2022-09-09T01:59:48;98384.75;;;11.59;79.46
70374;BME280;57792;49.198;7.890;2022-09-09T02:01:02;98380.00;;;11.47;79.91
70374;BME280;57792;49.198;7.890;2022-09-09T02:02:24;98383.16;;;11.55;79.46
70374;BME280;57792;49.198;7.890;2022-09-09T02:03:31;98383.25;;;11.54;79.60
70374;BME280;57792;49.198;7.890;2022-09-09T02:04:55;98376.09;;;11.54;79.30
70374;BME280;57792;49.198;7.890;2022-09-09T02:06:26;98377.59;;;11.60;79.58
70374;BME280;57792;49.198;7.890;2022-09-09T02:07:37;98383.66;;;11.63;79.20
70374;BME280;57792;49.198;7.890;2022-09-09T02:08:54;98386.06;;;11.68;79.03
70374;BME280;57792;49.198;7.890;2022-09-09T02:10:00;98390.75;;;11.45;80.26
70374;BME280;57792;49.198;7.890;2022-09-09T02:11:14;98384.75;;;11.59;79.42
70374;BME280;57792;49.198;7.890;2022-09-09T02:12:19;98376.66;;;11.61;79.09
70374;BME280;57792;49.198;7.890;2022-09-09T02:13:24;98381.41;;;11.71;79.00
70374;BME280;57792;49.198;7.890;2022-09-09T02:14:30;98374.59;;;11.66;78.98
70374;BME280;57792;49.198;7.890;2022-09-09T02:15:59;98372.78;;;11.66;79.15
70374;BME280;57792;49.198;7.890;2022-09-09T02:17:09;98365.97;;;11.61;78.79
70374;BME280;57792;49.198;7.890;2022-09-09T02:18:12;98363.66;;;11.70;78.95
70374;BME280;57792;49.198;7.890;2022-09-09T02:19:21;98370.75;;;11.71;78.57
70374;BME280;57792;49.198;7.890;2022-09-09T02:20:27;98369.50;;;11.61;78.76
70374;BME280;57792;49.198;7.890;2022-09-09T02:21:30;98373.81;;;11.64;78.64
70374;BME280;57792;49.198;7.890;2022-09-09T02:22:33;98377.88;;;11.36;79.72
70374;BME280;57792;49.198;7.890;2022-09-09T02:23:35;98367.53;;;11.30;79.67
70374;BME280;57792;49.198;7.890;2022-09-09T02:24:39;98370.81;;;11.35;79.48
70374;BME280;57792;49.198;7.890;2022-09-09T02:25:41;98360.53;;;11.28;79.31
70374;BME280;57792;49.198;7.890;2022-09-09T02:26:44;98361.47;;;11.27;79.63
70374;BME280;57792;49.198;7.890;2022-09-09T02:27:47;98370.88;;;11.34;79.58
70374;BME280;57792;49.198;7.890;2022-09-09T02:28:50;98365.25;;;11.40;79.20
70374;BME280;57792;49.198;7.890;2022-09-09T02:29:52;98363.59;;;11.37;79.19
70374;BME280;57792;49.198;7.890;2022-09-09T02:30:53;98369.00;;;11.36;79.34
70374;BME280;57792;49.198;7.890;2022-09-09T02:31:59;98361.69;;;11.39;79.39
70374;BME280;57792;49.198;7.890;2022-09-09T02:33:04;98371.22;;;11.45;78.75
70374;BME280;57792;49.198;7.890;2022-09-09T02:34:08;98368.53;;;11.45;79.14
70374;BME280;57792;49.198;7.890;2022-09-09T02:35:14;98362.50;;;11.41;79.01
70374;BME280;57792;49.198;7.890;2022-09-09T02:36:16;98364.94;;;11.46;78.88
70374;BME280;57792;49.198;7.890;2022-09-09T02:37:19;98361.56;;;11.42;78.65
70374;BME280;57792;49.198;7.890;2022-09-09T02:38:25;98362.34;;;11.44;78.53
70374;BME280;57792;49.198;7.890;2022-09-09T02:39:28;98361.78;;;11.38;78.53
70374;BME280;57792;49.198;7.890;2022-09-09T02:40:29;98363.81;;;11.33;78.63
70374;BME280;57792;49.198;7.890;2022-09-09T02:41:35;98352.53;;;11.28;78.61
70374;BME280;57792;49.198;7.890;2022-09-09T02:42:43;98350.56;;;11.31;78.82
70374;BME280;57792;49.198;7.890;2022-09-09T02:43:43;98352.75;;;11.23;78.72
70374;BME280;57792;49.198;7.890;2022-09-09T02:44:44;98362.19;;;11.30;78.64
70374;BME280;57792;49.198;7.890;2022-09-09T02:45:58;98360.69;;;11.25;79.25
70374;BME280;57792;49.198;7.890;2022-09-09T02:48:28;98361.19;;;11.14;79.55
70374;BME280;57792;49.198;7.890;2022-09-09T02:50:01;98366.56;;;10.95;80.65
70374;BME280;57792;49.198;7.890;2022-09-09T02:51:23;98367.09;;;11.02;80.01
70374;BME280;57792;49.198;7.890;2022-09-09T02:54:38;98360.53;;;11.09;79.24
70374;BME280;57792;49.198;7.890;2022-09-09T02:55:40;98366.66;;;11.11;79.22
70374;BME280;57792;49.198;7.890;2022-09-09T02:56:47;98362.91;;;11.15;78.71
70374;BME280;57792;49.198;7.890;2022-09-09T02:57:51;98369.94;;;11.18;78.89
70374;BME280;57792;49.198;7.890;2022-09-09T02:58:52;98370.56;;;11.23;78.97
70374;BME280;57792;49.198;7.890;2022-09-09T02:59:53;98370.72;;;11.20;79.08
70374;BME280;57792;49.198;7.890;2022-09-09T03:00:57;98368.69;;;11.25;78.89
70374;BME280;57792;49.198;7.890;2022-09-09T03:01:58;98358.09;;;11.23;78.59
70374;BME280;57792;49.198;7.890;2022-09-09T03:02:59;98357.22;;;11.23;78.56
70374;BME280;57792;49.198;7.890;2022-09-09T03:03:59;98366.81;;;11.27;78.10
70374;BME280;57792;49.198;7.890;2022-09-09T03:05:00;98360.75;;;11.23;78.36
70374;BME280;57792;49.198;7.890;2022-09-09T03:06:00;98365.31;;;11.21;78.67
70374;BME280;57792;49.198;7.890;2022-09-09T03:07:01;98360.69;;;11.25;78.51
70374;BME280;57792;49.198;7.890;2022-09-09T03:08:04;98372.44;;;11.21;78.37
70374;BME280;57792;49.198;7.890;2022-09-09T03:09:05;98355.06;;;11.12;78.43
70374;BME280;57792;49.198;7.890;2022-09-09T03:10:06;98364.28;;;11.24;78.18
70374;BME280;57792;49.198;7.890;2022-09-09T03:11:07;98370.41;;;11.26;78.40
70374;BME280;57792;49.198;7.890;2022-09-09T03:12:07;98368.53;;;11.28;78.11
70374;BME280;57792;49.198;7.890;2022-09-09T03:13:08;98373.94;;;11.26;78.10
70374;BME280;57792;49.198;7.890;2022-09-09T03:14:08;98358.16;;;11.22;78.30
70374;BME280;57792;49.198;7.890;2022-09-09T03:15:11;98372.38;;;11.22;78.58
70374;BME280;57792;49.198;7.890;2022-09-09T03:16:11;98371.59;;;11.20;78.27
70374;BME280;57792;49.198;7.890;2022-09-09T03:17:12;98365.94;;;11.07;78.76
70374;BME280;57792;49.198;7.890;2022-09-09T03:18:12;98366.72;;;10.92;79.54
70374;BME280;57792;49.198;7.890;2022-09-09T03:19:12;98371.03;;;10.95;79.18
70374;BME280;57792;49.198;7.890;2022-09-09T03:20:13;98378.16;;;10.94;79.46
70374;BME280;57792;49.198;7.890;2022-09-09T03:21:13;98381.38;;;11.01;79.09
70374;BME280;57792;49.198;7.890;2022-09-09T03:22:14;98370.50;;;11.05;78.63
70374;BME280;57792;49.198;7.890;2022-09-09T03:23:14;98365.84;;;10.92;78.69
70374;BME280;57792;49.198;7.890;2022-09-09T03:24:15;98371.09;;;10.93;78.88
70374;BME280;57792;49.198;7.890;2022-09-09T03:25:16;98370.63;;;11.02;78.75
70374;BME280;57792;49.198;7.890;2022-09-09T03:26:16;98361.69;;;11.03;78.86
70374;BME280;57792;49.198;7.890;2022-09-09T03:27:17;98372.38;;;11.03;78.79
70374;BME280;57792;49.198;7.890;2022-09-09T03:28:17;98368.84;;;11.03;78.39
70374;BME280;57792;49.198;7.890;2022-09-09T03:29:18;98368.63;;;11.07;78.25
70374;BME280;57792;49.198;7.890;2022-09-09T03:30:19;98359.91;;;11.04;78.32
70374;BME280;57792;49.198;7.890;2022-09-09T03:31:19;98364.50;;;11.00;78.46
70374;BME280;57792;49.198;7.890;2022-09-09T03:32:20;98362.09;;;10.96;78.43
70374;BME280;57792;49.198;7.890;2022-09-09T03:33:22;98364.75;;;10.96;78.09
70374;BME280;57792;49.198;7.890;2022-09-09T03:34:22;98361.94;;;10.99;78.19
70374;BME280;57792;49.198;7.890;2022-09-09T03:35:23;98346.88;;;10.98;78.36
70374;BME280;57792;49.198;7.890;2022-09-09T03:36:25;98360.22;;;10.98;78.46
70374;BME280;57792;49.198;7.890;2022-09-09T03:37:26;98372.63;;;10.99;78.61
70374;BME280;57792;49.198;7.890;2022-09-09T03:38:27;98372.25;;;10.69;79.30
70374;BME280;57792;49.198;7.890;2022-09-09T03:39:28;98373.56;;;10.79;79.19
70374;BME280;57792;49.198;7.890;2022-09-09T03:40:29;98376.00;;;10.84;79.11
70374;BME280;57792;49.198;7.890;2022-09-09T03:41:31;98370.97;;;10.77;79.61
70374;BME280;57792;49.198;7.890;2022-09-09T03:42:31;98381.63;;;10.77;79.79
70374;BME280;57792;49.198;7.890;2022-09-09T03:43:31;98374.94;;;10.88;79.26
70374;BME280;57792;49.198;7.890;2022-09-09T03:44:32;98378.31;;;10.91;78.57
70374;BME280;57792;49.198;7.890;2022-09-09T03:45:33;98374.72;;;10.92;78.75
70374;BME280;57792;49.198;7.890;2022-09-09T03:46:34;98373.63;;;10.96;79.28
70374;BME280;57792;49.198;7.890;2022-09-09T03:47:34;98365.63;;;10.96;79.21
70374;BME280;57792;49.198;7.890;2022-09-09T03:48:35;98373.78;;;10.93;79.08
70374;BME280;57792;49.198;7.890;2022-09-09T03:49:35;98374.31;;;11.00;79.04
70374;BME280;57792;49.198;7.890;2022-09-09T03:50:35;98384.16;;;10.99;78.88
70374;BME280;57792;49.198;7.890;2022-09-09T03:51:36;98373.38;;;11.01;78.93
70374;BME280;57792;49.198;7.890;2022-09-09T03:52:38;98385.78;;;11.02;79.18
70374;BME280;57792;49.198;7.890;2022-09-09T03:53:39;98381.22;;;11.04;79.18
70374;BME280;57792;49.198;7.890;2022-09-09T03:54:40;98377.09;;;10.98;79.73
70374;BME280;57792;49.198;7.890;2022-09-09T03:55:46;98379.75;;;10.98;79.50
70374;BME280;57792;49.198;7.890;2022-09-09T03:56:47;98379.31;;;10.89;80.09
70374;BME280;57792;49.198;7.890;2022-09-09T03:57:47;98377.16;;;10.97;79.65
70374;BME280;57792;49.198;7.890;2022-09-09T03:58:47;98371.75;;;10.98;79.43
70374;BME280;57792;49.198;7.890;2022-09-09T03:59:48;98369.38;;;10.92;79.73
70374;BME280;57792;49.198;7.890;2022-09-09T04:01:54;98374.66;;;11.11;79.70
70374;BME280;57792;49.198;7.890;2022-09-09T04:02:55;98377.19;;;11.14;79.84
70374;BME280;57792;49.198;7.890;2022-09-09T04:03:56;98379.13;;;11.10;79.65
70374;BME280;57792;49.198;7.890;2022-09-09T04:04:58;98380.84;;;10.94;80.19
70374;BME280;57792;49.198;7.890;2022-09-09T04:06:00;98388.13;;;10.91;79.95
70374;BME280;57792;49.198;7.890;2022-09-09T04:07:02;98376.38;;;10.95;80.06
70374;BME280;57792;49.198;7.890;2022-09-09T04:08:02;98383.97;;;11.02;79.76
70374;BME280;57792;49.198;7.890;2022-09-09T04:09:03;98387.78;;;10.61;81.73
70374;BME280;57792;49.198;7.890;2022-09-09T04:10:03;98386.03;;;10.78;80.30
70374;BME280;57792;49.198;7.890;2022-09-09T04:11:04;98387.41;;;10.87;80.56
70374;BME280;57792;49.198;7.890;2022-09-09T04:12:06;98387.66;;;11.00;79.89
70374;BME280;57792;49.198;7.890;2022-09-09T04:13:06;98381.47;;;10.99;79.78
70374;BME280;57792;49.198;7.890;2022-09-09T04:14:07;98391.03;;;11.03;79.27
70374;BME280;57792;49.198;7.890;2022-09-09T04:15:07;98383.47;;;11.13;79.29
70374;BME280;57792;49.198;7.890;2022-09-09T04:16:10;98378.34;;;11.08;79.28
70374;BME280;57792;49.198;7.890;2022-09-09T04:17:11;98377.06;;;11.17;79.33
70374;BME280;57792;49.198;7.890;2022-09-09T04:18:11;98372.59;;;11.18;79.15
70374;BME280;57792;49.198;7.890;2022-09-09T04:19:12;98370.88;;;11.17;79.16
70374;BME280;57792;49.198;7.890;2022-09-09T04:20:13;98369.78;;;11.21;79.03
70374;BME280;57792;49.198;7.890;2022-09-09T04:21:14;98374.25;;;11.20;79.03
70374;BME280;57792;49.198;7.890;2022-09-09T04:22:16;98379.66;;;11.19;78.83
70374;BME280;57792;49.198;7.890;2022-09-09T04:23:17;98375.34;;;11.16;78.80
70374;BME280;57792;49.198;7.890;2022-09-09T04:24:19;98373.56;;;11.15;78.83
70374;BME280;57792;49.198;7.890;2022-09-09T04:25:19;98383.28;;;11.18;78.88
70374;BME280;57792;49.198;7.890;2022-09-09T04:26:20;98370.78;;;11.18;78.81
70374;BME280;57792;49.198;7.890;2022-09-09T04:27:20;98372.94;;;11.10;79.15
70374;BME280;57792;49.198;7.890;2022-09-09T04:28:23;98380.00;;;11.11;79.20
70374;BME280;57792;49.198;7.890;2022-09-09T04:29:24;98375.13;;;11.21;79.40
70374;BME280;57792;49.198;7.890;2022-09-09T04:30:24;98381.47;;;11.18;79.29
70374;BME280;57792;49.198;7.890;2022-09-09T04:31:25;98389.13;;;10.88;80.70
70374;BME280;57792;49.198;7.890;2022-09-09T04:32:25;98381.41;;;10.82;81.00
70374;BME280;57792;49.198;7.890;2022-09-09T04:33:28;98382.25;;;11.01;80.20
70374;BME280;57792;49.198;7.890;2022-09-09T04:34:30;98380.00;;;11.11;80.09
70374;BME280;57792;49.198;7.890;2022-09-09T04:35:31;98384.94;;;11.20;79.74
70374;BME280;57792;49.198;7.890;2022-09-09T04:36:32;98392.47;;;11.10;80.12
70374;BME280;57792;49.198;7.890;2022-09-09T04:37:33;98387.66;;;11.19;79.91
70374;BME280;57792;49.198;7.890;2022-09-09T04:38:33;98382.19;;;11.22;79.70
70374;BME280;57792;49.198;7.890;2022-09-09T04:39:33;98392.63;;;11.26;79.74
70374;BME280;57792;49.198;7.890;2022-09-09T04:40:34;98392.44;;;10.93;81.09
70374;BME280;57792;49.198;7.890;2022-09-09T04:41:34;98388.25;;;10.88;80.91
70374;BME280;57792;49.198;7.890;2022-09-09T04:42:38;98393.38;;;10.92;81.22
70374;BME280;57792;49.198;7.890;2022-09-09T04:43:39;98395.38;;;11.06;80.63
70374;BME280;57792;49.198;7.890;2022-09-09T04:44:39;98395.00;;;11.13;80.27
70374;BME280;57792;49.198;7.890;2022-09-09T04:45:47;98383.19;;;11.19;79.81
70374;BME280;57792;49.198;7.890;2022-09-09T04:46:47;98387.44;;;11.23;79.61
70374;BME280;57792;49.198;7.890;2022-09-09T04:47:48;98390.84;;;11.27;79.59
70374;BME280;57792;49.198;7.890;2022-09-09T04:48:49;98386.22;;;11.30;79.59
70374;BME280;57792;49.198;7.890;2022-09-09T04:49:50;98393.16;;;11.33;79.28
70374;BME280;57792;49.198;7.890;2022-09-09T04:50:56;98393.28;;;11.31;79.40
70374;BME280;57792;49.198;7.890;2022-09-09T04:51:57;98394.16;;;11.32;79.06
70374;BME280;57792;49.198;7.890;2022-09-09T04:53:00;98394.22;;;11.30;79.51
70374;BME280;57792;49.198;7.890;2022-09-09T04:54:02;98397.91;;;11.28;79.16
70374;BME280;57792;49.198;7.890;2022-09-09T04:55:03;98397.56;;;11.34;79.45
70374;BME280;57792;49.198;7.890;2022-09-09T04:57:05;98396.41;;;11.22;79.54
70374;BME280;57792;49.198;7.890;2022-09-09T04:58:07;98385.63;;;11.05;80.44
70374;BME280;57792;49.198;7.890;2022-09-09T04:59:08;98395.94;;;11.12;79.77
70374;BME280;57792;49.198;7.890;2022-09-09T05:00:10;98396.25;;;11.25;79.56
70374;BME280;57792;49.198;7.890;2022-09-09T05:01:15;98381.31;;;11.21;79.57
70374;BME280;57792;49.198;7.890;2022-09-09T05:02:17;98382.59;;;11.31;79.12
70374;BME280;57792;49.198;7.890;2022-09-09T05:03:18;98389.19;;;11.24;79.65
70374;BME280;57792;49.198;7.890;2022-09-09T05:04:18;98395.22;;;11.28;79.12
70374;BME280;57792;49.198;7.890;2022-09-09T05:05:19;98385.00;;;11.19;79.41
70374;BME280;57792;49.198;7.890;2022-09-09T05:06:21;98386.44;;;11.07;79.71
70374;BME280;57792;49.198;7.890;2022-09-09T05:07:21;98393.16;;;11.16;79.47
70374;BME280;57792;49.198;7.890;2022-09-09T05:08:22;98394.81;;;11.18;79.81
70374;BME280;57792;49.198;7.890;2022-09-09T05:09:22;98378.72;;;11.20;79.43
70374;BME280;57792;49.198;7.890;2022-09-09T05:10:23;98384.84;;;11.22;79.43
70374;BME280;57792;49.198;7.890;2022-09-09T05:11:28;98380.53;;;11.19;79.14
70374;BME280;57792;49.198;7.890;2022-09-09T05:12:29;98388.22;;;11.06;79.68
70374;BME280;57792;49.198;7.890;2022-09-09T05:13:29;98387.94;;;11.12;79.55
70374;BME280;57792;49.198;7.890;2022-09-09T05:14:32;98386.88;;;11.17;79.43
70374;BME280;57792;49.198;7.890;2022-09-09T05:15:32;98385.25;;;11.12;79.69
70374;BME280;57792;49.198;7.890;2022-09-09T05:16:33;98387.50;;;11.03;80.42
70374;BME280;57792;49.198;7.890;2022-09-09T05:17:33;98390.56;;;10.95;80.60
70374;BME280;57792;49.198;7.890;2022-09-09T05:18:33;98389.00;;;10.91;80.55
70374;BME280;57792;49.198;7.890;2022-09-09T05:19:34;98395.84;;;10.97;80.42
70374;BME280;57792;49.198;7.890;2022-09-09T05:20:34;98393.78;;;11.02;79.78
70374;BME280;57792;49.198;7.890;2022-09-09T05:21:34;98402.34;;;11.08;79.94
70374;BME280;57792;49.198;7.890;2022-09-09T05:22:35;98399.53;;;11.11;79.84
70374;BME280;57792;49.198;7.890;2022-09-09T05:23:36;98395.00;;;11.13;79.96
70374;BME280;57792;49.198;7.890;2022-09-09T05:24:37;98406.34;;;11.19;79.43
70374;BME280;57792;49.198;7.890;2022-09-09T05:25:38;98408.94;;;11.20;79.56
70374;BME280;57792;49.198;7.890;2022-09-09T05:26:38;98411.31;;;11.07;79.95
70374;BME280;57792;49.198;7.890;2022-09-09T05:27:38;98413.59;;;11.15;79.83
70374;BME280;57792;49.198;7.890;2022-09-09T05:28:39;98415.41;;;11.15;79.55
70374;BME280;57792;49.198;7.890;2022-09-09T05:29:39;98410.31;;;10.91;80.54
70374;BME280;57792;49.198;7.890;2022-09-09T05:30:41;98419.66;;;11.00;80.32
70374;BME280;57792;49.198;7.890;2022-09-09T05:31:42;98420.81;;;11.13;79.89
70374;BME280;57792;49.198;7.890;2022-09-09T05:32:42;98422.22;;;11.22;79.59
70374;BME280;57792;49.198;7.890;2022-09-09T05:33:44;98416.00;;;11.21;79.53
70374;BME280;57792;49.198;7.890;2022-09-09T05:34:45;98426.31;;;11.29;79.35
70374;BME280;57792;49.198;7.890;2022-09-09T05:35:46;98417.19;;;11.33;79.62
70374;BME280;57792;49.198;7.890;2022-09-09T05:36:47;98417.91;;;11.36;79.41
70374;BME280;57792;49.198;7.890;2022-09-09T05:37:47;98418.53;;;11.41;79.19
70374;BME280;57792;49.198;7.890;2022-09-09T05:38:48;98421.16;;;11.43;79.15
70374;BME280;57792;49.198;7.890;2022-09-09T05:39:49;98408.03;;;11.38;79.76
70374;BME280;57792;49.198;7.890;2022-09-09T05:40:51;98414.22;;;11.39;79.58
70374;BME280;57792;49.198;7.890;2022-09-09T05:41:52;98422.50;;;11.52;79.41
70374;BME280;57792;49.198;7.890;2022-09-09T05:42:52;98408.72;;;11.42;79.64
70374;BME280;57792;49.198;7.890;2022-09-09T05:43:53;98420.97;;;11.10;81.10
70374;BME280;57792;49.198;7.890;2022-09-09T05:44:53;98426.94;;;11.15;80.50
70374;BME280;57792;49.198;7.890;2022-09-09T05:47:04;98427.41;;;11.42;79.82
70374;BME280;57792;49.198;7.890;2022-09-09T05:48:05;98428.06;;;11.47;79.78
70374;BME280;57792;49.198;7.890;2022-09-09T05:49:05;98423.81;;;11.43;79.81
70374;BME280;57792;49.198;7.890;2022-09-09T05:50:06;98427.50;;;11.40;80.04
70374;BME280;57792;49.198;7.890;2022-09-09T05:51:12;98422.50;;;11.52;79.76
70374;BME280;57792;49.198;7.890;2022-09-09T05:52:15;98426.66;;;11.57;79.65
70374;BME280;57792;49.198;7.890;2022-09-09T05:53:15;98421.78;;;11.65;79.19
70374;BME280;57792;49.198;7.890;2022-09-09T05:54:17;98435.25;;;11.64;79.28
70374;BME280;57792;49.198;7.890;2022-09-09T05:55:17;98424.44;;;11.65;79.50
70374;BME280;57792;49.198;7.890;2022-09-09T05:56:23;98426.03;;;11.69;79.11
70374;BME280;57792;49.198;7.890;2022-09-09T05:57:25;98420.75;;;11.68;78.95
70374;BME280;57792;49.198;7.890;2022-09-09T05:58:25;98443.25;;;11.64;79.03
70374;BME280;57792;49.198;7.890;2022-09-09T05:59:25;98427.75;;;11.53;79.44
70374;BME280;57792;49.198;7.890;2022-09-09T06:00:26;98434.69;;;11.57;79.59
70374;BME280;57792;49.198;7.890;2022-09-09T06:01:29;98429.78;;;11.65;79.57
70374;BME280;57792;49.198;7.890;2022-09-09T06:02:30;98449.63;;;11.61;79.93
70374;BME280;57792;49.198;7.890;2022-09-09T06:03:37;98440.25;;;11.70;79.96
70374;BME280;57792;49.198;7.890;2022-09-09T06:04:38;98434.84;;;11.71;79.67
70374;BME280;57792;49.198;7.890;2022-09-09T06:05:38;98442.06;;;11.69;80.12
70374;BME280;57792;49.198;7.890;2022-09-09T06:06:39;98446.22;;;11.75;79.61
70374;BME280;57792;49.198;7.890;2022-09-09T06:07:40;98451.97;;;11.85;79.37
70374;BME280;57792;49.198;7.890;2022-09-09T06:08:44;98445.06;;;11.81;79.74
70374;BME280;57792;49.198;7.890;2022-09-09T06:09:45;98449.47;;;11.82;79.53
70374;BME280;57792;49.198;7.890;2022-09-09T06:10:45;98444.19;;;11.63;79.69
70374;BME280;57792;49.198;7.890;2022-09-09T06:11:45;98447.63;;;11.48;80.38
70374;BME280;57792;49.198;7.890;2022-09-09T06:12:46;98450.84;;;11.71;79.86
70374;BME280;57792;49.198;7.890;2022-09-09T06:13:46;98442.63;;;11.76;79.60
70374;BME280;57792;49.198;7.890;2022-09-09T06:14:47;98430.06;;;11.78;79.37
70374;BME280;57792;49.198;7.890;2022-09-09T06:15:51;98443.81;;;11.88;79.33
70374;BME280;57792;49.198;7.890;2022-09-09T06:16:52;98447.91;;;11.95;79.24